Time;durP1;ratioP1;P1;durP2;ratioP2;P2;SDS_P1;SDS_P2;PMS_P1;PMS_P2;Temp;Humidity;BMP_temperature;BMP_pressure;BME280_temperature;BME280_humidity;BME280_pressure;Samples;Min_cycle;Max_cycle;Signal;HPM_P1;HPM_P2
2022/05/14 00:00:59;;;;;;;;;;;;;;;22.24;38.97;100311.31;2059399;28;1018;-55
2022/05/14 00:01:59;;;;;;;;;;;;;;;22.23;39.19;100310.44;2059242;28;784;-55
2022/05/14 00:02:59;;;;;;;;;;;;;;;22.23;38.96;100312.25;2059411;28;1033;-55
2022/05/14 00:04:00;;;;;;;;;;;;;;;22.22;39.55;100324.88;2059216;28;840;-55
2022/05/14 00:05:00;;;;;;;;;;;;;;;22.21;39.26;100312.34;2059393;28;939;-55
2022/05/14 00:06:02;;;;;;;;;;;;;;;22.20;38.96;100307.91;2059192;28;1066;-55
2022/05/14 00:07:03;;;;;;;;;;;;;;;22.19;39.23;100303.44;2059355;28;879;-55
2022/05/14 00:08:03;;;;;;;;;;;;;;;22.18;39.45;100302.56;2059169;28;680;-55
2022/05/14 00:09:05;;;;;;;;;;;;;;;22.18;39.79;100305.25;2059388;28;836;-54
2022/05/14 00:10:06;;;;;;;;;;;;;;;22.18;38.95;100304.41;2059087;28;789;-55
2022/05/14 00:13:44;;;;;;;;;;;;;;;22.15;39.88;100308.09;2059107;28;1898;-55
2022/05/14 00:14:44;;;;;;;;;;;;;;;22.15;39.16;100304.53;2059268;28;998;-55
2022/05/14 00:15:44;;;;;;;;;;;;;;;22.17;39.81;100302.66;2059125;28;816;-55
2022/05/14 00:16:45;;;;;;;;;;;;;;;22.16;39.96;100301.75;2059394;28;986;-55
2022/05/14 00:17:46;;;;;;;;;;;;;;;22.16;39.52;100303.59;2058425;28;962;-55
2022/05/14 00:18:47;;;;;;;;;;;;;;;22.15;39.50;100301.84;2058664;28;785;-55
2022/05/14 00:19:47;;;;;;;;;;;;;;;22.14;39.24;100298.25;2059036;28;855;-55
2022/05/14 00:20:48;;;;;;;;;;;;;;;22.12;40.11;100300.16;2059247;28;852;-55
2022/05/14 00:21:48;;;;;;;;;;;;;;;22.14;39.06;100297.41;2059071;28;1025;-55
2022/05/14 00:22:48;;;;;;;;;;;;;;;22.14;39.70;100297.41;2059232;28;845;-55
2022/05/14 00:23:48;;;;;;;;;;;;;;;22.15;39.95;100296.47;2059058;28;1077;-55
2022/05/14 00:24:49;;;;;;;;;;;;;;;22.14;39.88;100295.56;2059221;28;1017;-55
2022/05/14 00:25:49;;;;;;;;;;;;;;;22.14;39.48;100292.00;2059042;28;835;-55
2022/05/14 00:26:49;;;;;;;;;;;;;;;22.13;39.35;100295.66;2059046;28;1060;-56
2022/05/14 00:27:49;;;;;;;;;;;;;;;22.14;39.25;100295.56;2059012;28;943;-55
2022/05/14 00:28:50;;;;;;;;;;;;;;;22.13;39.98;100288.41;2059244;28;786;-55
2022/05/14 00:29:50;;;;;;;;;;;;;;;22.14;39.37;100297.41;2059039;28;911;-55
2022/05/14 00:30:50;;;;;;;;;;;;;;;22.13;39.78;100299.22;2059180;28;813;-55
2022/05/14 00:31:50;;;;;;;;;;;;;;;22.13;39.98;100292.97;2059080;28;1059;-55
2022/05/14 00:32:51;;;;;;;;;;;;;;;22.13;39.48;100299.22;2059217;28;898;-55
2022/05/14 00:33:51;;;;;;;;;;;;;;;22.13;39.48;100292.97;2058884;28;1985;-55
2022/05/14 00:34:51;;;;;;;;;;;;;;;22.13;39.61;100292.97;2059142;28;830;-55
2022/05/14 00:35:51;;;;;;;;;;;;;;;22.14;39.41;100289.31;2058262;28;1137;-55
2022/05/14 00:36:52;;;;;;;;;;;;;;;22.12;39.47;100286.66;2058559;28;768;-55
2022/05/14 00:37:52;;;;;;;;;;;;;;;22.11;39.69;100284.06;2058849;28;1161;-55
2022/05/14 00:38:54;;;;;;;;;;;;;;;22.12;39.57;100291.22;2058454;28;1543;-55
2022/05/14 00:39:54;;;;;;;;;;;;;;;22.11;40.07;100286.75;2058300;28;823;-55
2022/05/14 00:40:58;;;;;;;;;;;;;;;22.11;39.96;100289.47;2059124;28;810;-55
2022/05/14 00:41:58;;;;;;;;;;;;;;;22.11;40.04;100284.91;2058961;28;843;-55
2022/05/14 00:42:59;;;;;;;;;;;;;;;22.12;39.46;100285.81;2059101;28;760;-55
2022/05/14 00:44:00;;;;;;;;;;;;;;;22.10;40.29;100288.56;2058935;28;785;-55
2022/05/14 00:45:00;;;;;;;;;;;;;;;22.12;39.39;100286.66;2059074;28;1047;-55
2022/05/14 00:46:06;;;;;;;;;;;;;;;22.10;39.69;100288.56;2058893;28;867;-55
2022/05/14 00:47:09;;;;;;;;;;;;;;;22.11;39.68;100289.47;2059058;28;1013;-55
2022/05/14 00:48:11;;;;;;;;;;;;;;;22.11;39.55;100284.06;2058859;28;856;-55
2022/05/14 00:49:12;;;;;;;;;;;;;;;22.10;40.23;100288.56;2058984;28;1045;-55
2022/05/14 00:50:21;;;;;;;;;;;;;;;22.09;39.41;100278.72;2058236;28;780;-56
2022/05/14 00:51:25;;;;;;;;;;;;;;;22.10;40.21;100279.63;2059004;28;978;-55
2022/05/14 00:52:26;;;;;;;;;;;;;;;22.10;39.53;100280.47;2058867;28;839;-55
2022/05/14 00:53:30;;;;;;;;;;;;;;;22.09;40.37;100275.16;2058841;28;1969;-55
2022/05/14 00:54:51;;;;;;;;;;;;;;;22.08;39.55;100284.22;2058919;28;1009;-55
2022/05/14 00:55:52;;;;;;;;;;;;;;;22.06;40.31;100273.50;2058790;28;1078;-55
2022/05/14 00:56:55;;;;;;;;;;;;;;;22.07;40.28;100275.25;2058993;28;800;-55
2022/05/14 00:57:55;;;;;;;;;;;;;;;22.08;39.43;100284.22;2058720;28;1060;-55
2022/05/14 00:59:00;;;;;;;;;;;;;;;22.08;39.63;100278.81;2058940;28;938;-55
2022/05/14 01:00:03;;;;;;;;;;;;;;;22.06;40.21;100279.75;2058793;28;900;-55
2022/05/14 01:01:03;;;;;;;;;;;;;;;22.06;40.30;100276.22;2058982;28;939;-55
2022/05/14 01:02:06;;;;;;;;;;;;;;;22.06;40.15;100271.66;2058753;28;843;-55
2022/05/14 01:03:06;;;;;;;;;;;;;;;22.06;40.30;100266.28;2058874;28;797;-55
2022/05/14 01:04:07;;;;;;;;;;;;;;;22.06;40.22;100271.66;2058752;28;1041;-55
2022/05/14 01:05:09;;;;;;;;;;;;;;;22.08;39.73;100271.59;2058932;28;819;-55
2022/05/14 01:06:11;;;;;;;;;;;;;;;22.08;39.44;100276.97;2058779;28;839;-55
2022/05/14 01:07:13;;;;;;;;;;;;;;;22.06;39.91;100266.28;2058803;28;1473;-55
2022/05/14 01:08:14;;;;;;;;;;;;;;;22.06;40.31;100266.28;2058733;28;776;-55
2022/05/14 01:09:14;;;;;;;;;;;;;;;22.04;39.70;100270.88;2058885;28;958;-55
2022/05/14 01:10:16;;;;;;;;;;;;;;;22.06;40.02;100271.66;2058666;28;985;-55
2022/05/14 01:11:17;;;;;;;;;;;;;;;22.05;40.45;100269.91;2059069;28;789;-55
2022/05/14 01:12:18;;;;;;;;;;;;;;;22.06;40.49;100270.81;2058823;28;1046;-55
2022/05/14 01:13:18;;;;;;;;;;;;;;;22.05;39.94;100269.06;2058745;28;1954;-55
2022/05/14 01:14:21;;;;;;;;;;;;;;;22.04;40.44;100268.19;2058013;28;1027;-55
2022/05/14 01:15:23;;;;;;;;;;;;;;;22.05;40.51;100269.06;2058262;28;808;-55
2022/05/14 01:16:23;;;;;;;;;;;;;;;22.05;39.63;100269.06;2058673;28;998;-55
2022/05/14 01:17:23;;;;;;;;;;;;;;;22.05;40.42;100267.22;2058842;28;1053;-55
2022/05/14 01:18:25;;;;;;;;;;;;;;;22.06;40.04;100262.72;2058667;28;1033;-55
2022/05/14 01:19:26;;;;;;;;;;;;;;;22.04;39.95;100267.31;2058803;28;788;-55
2022/05/14 01:20:26;;;;;;;;;;;;;;;22.03;40.32;100263.72;2058611;28;798;-55
2022/05/14 01:21:32;;;;;;;;;;;;;;;22.05;40.60;100258.28;2058781;28;800;-55
2022/05/14 01:22:32;;;;;;;;;;;;;;;22.04;39.87;100262.78;2058732;28;773;-55
2022/05/14 01:23:33;;;;;;;;;;;;;;;22.03;40.09;100254.78;2066041;28;1289;-55
2022/05/14 01:27:20;;;;;;;;;;;;;;;22.03;39.93;100260.19;2058701;28;1079;-55
2022/05/14 01:28:20;;;;;;;;;;;;;;;22.02;40.61;100253.88;2058574;28;989;-55
2022/05/14 01:29:21;;;;;;;;;;;;;;;22.03;40.40;100254.78;2058813;28;990;-55
2022/05/14 01:30:22;;;;;;;;;;;;;;;22.04;40.00;100253.84;2058570;28;800;-55
2022/05/14 01:31:22;;;;;;;;;;;;;;;22.02;40.81;100256.59;2058880;28;990;-55
2022/05/14 01:32:22;;;;;;;;;;;;;;;22.03;40.16;100255.63;2058696;28;1027;-55
2022/05/14 01:33:22;;;;;;;;;;;;;;;22.02;40.70;100253.88;2058729;28;1963;-55
2022/05/14 01:34:28;;;;;;;;;;;;;;;22.03;40.55;100252.09;2058484;28;1064;-55
2022/05/14 01:35:28;;;;;;;;;;;;;;;22.01;40.23;100246.75;2058741;28;808;-55
2022/05/14 01:36:28;;;;;;;;;;;;;;;22.01;40.82;100249.44;2057874;28;1156;-55
2022/05/14 01:37:28;;;;;;;;;;;;;;;22.01;40.28;100252.13;2058077;28;772;-55
2022/05/14 01:38:28;;;;;;;;;;;;;;;22.02;40.45;100258.44;2058568;28;777;-54
2022/05/14 01:39:29;;;;;;;;;;;;;;;22.02;40.05;100248.50;2058634;28;1235;-55
2022/05/14 01:40:31;;;;;;;;;;;;;;;22.02;40.74;100248.50;2058664;28;1180;-55
2022/05/14 01:41:31;;;;;;;;;;;;;;;22.02;40.59;100253.88;2058596;28;844;-55
2022/05/14 01:42:31;;;;;;;;;;;;;;;22.02;40.42;100247.63;2058654;28;760;-55
2022/05/14 01:43:31;;;;;;;;;;;;;;;22.02;41.06;100244.94;2058580;28;817;-55
2022/05/14 01:44:32;;;;;;;;;;;;;;;22.02;40.63;100247.63;2058793;28;903;-55
2022/05/14 01:45:32;;;;;;;;;;;;;;;22.02;40.35;100245.81;2058512;28;1042;-55
2022/05/14 01:46:32;;;;;;;;;;;;;;;22.02;40.73;100247.63;2058429;28;828;-55
2022/05/14 01:47:34;;;;;;;;;;;;;;;22.03;40.12;100246.69;2058565;28;978;-55
2022/05/14 01:48:34;;;;;;;;;;;;;;;22.01;40.71;100244.06;2058567;28;800;-55
2022/05/14 01:49:34;;;;;;;;;;;;;;;22.02;40.01;100251.19;2058501;28;840;-55
2022/05/14 01:50:34;;;;;;;;;;;;;;;22.02;41.08;100242.25;2058629;28;836;-55
2022/05/14 01:51:34;;;;;;;;;;;;;;;22.00;41.12;100239.59;2058515;28;864;-55
2022/05/14 01:52:35;;;;;;;;;;;;;;;22.01;40.75;100241.34;2058669;28;843;-55
2022/05/14 01:53:35;;;;;;;;;;;;;;;22.01;41.09;100243.19;2058488;28;1957;-55
2022/05/14 01:54:35;;;;;;;;;;;;;;;22.01;40.81;100244.06;2058515;28;1041;-55
2022/05/14 01:55:35;;;;;;;;;;;;;;;22.00;40.42;100239.59;2058428;28;807;-55
2022/05/14 01:56:36;;;;;;;;;;;;;;;22.00;41.22;100238.75;2058572;28;800;-55
2022/05/14 01:57:36;;;;;;;;;;;;;;;22.00;40.88;100245.00;2058460;28;823;-55
2022/05/14 01:58:36;;;;;;;;;;;;;;;22.00;40.60;100231.50;2058474;28;820;-55
2022/05/14 01:59:36;;;;;;;;;;;;;;;22.00;40.53;100242.31;2058450;28;927;-55
2022/05/14 02:00:36;;;;;;;;;;;;;;;22.00;40.38;100238.75;2058521;28;982;-55
2022/05/14 02:01:37;;;;;;;;;;;;;;;22.00;40.45;100238.75;2058227;28;987;-55
2022/05/14 02:02:37;;;;;;;;;;;;;;;21.99;41.00;100232.47;2058540;28;832;-55
2022/05/14 02:03:38;;;;;;;;;;;;;;;21.98;40.70;100236.09;2058397;28;844;-55
2022/05/14 02:04:39;;;;;;;;;;;;;;;21.99;40.98;100237.84;2058692;28;847;-55
2022/05/14 02:05:39;;;;;;;;;;;;;;;21.98;40.49;100236.09;2058432;28;824;-55
2022/05/14 02:06:40;;;;;;;;;;;;;;;22.00;40.57;100241.44;2058527;28;1045;-55
2022/05/14 02:07:40;;;;;;;;;;;;;;;21.99;41.21;100237.84;2058361;28;855;-55
2022/05/14 02:08:40;;;;;;;;;;;;;;;21.97;40.64;100228.09;2058518;28;1002;-55
2022/05/14 02:09:41;;;;;;;;;;;;;;;21.98;41.27;100230.72;2058448;28;832;-55
2022/05/14 02:10:41;;;;;;;;;;;;;;;21.99;41.05;100234.31;2058545;28;907;-55
2022/05/14 02:11:42;;;;;;;;;;;;;;;21.98;40.48;100228.03;2058345;28;867;-55
2022/05/14 02:12:42;;;;;;;;;;;;;;;21.99;41.47;100229.75;2058551;28;860;-55
2022/05/14 02:13:43;;;;;;;;;;;;;;;21.98;41.37;100225.31;2058280;28;1959;-55
2022/05/14 02:14:45;;;;;;;;;;;;;;;21.98;41.38;100228.03;2058559;28;784;-55
2022/05/14 02:15:45;;;;;;;;;;;;;;;21.97;40.56;100226.28;2058315;28;883;-55
2022/05/14 02:16:46;;;;;;;;;;;;;;;21.98;41.19;100229.84;2058499;28;1254;-55
2022/05/14 02:17:46;;;;;;;;;;;;;;;21.98;40.76;100225.31;2058347;28;832;-55
2022/05/14 02:18:46;;;;;;;;;;;;;;;21.99;40.68;100235.16;2058484;28;1042;-55
2022/05/14 02:19:48;;;;;;;;;;;;;;;21.98;40.75;100227.16;2058359;28;768;-55
2022/05/14 02:20:48;;;;;;;;;;;;;;;21.98;41.58;100230.72;2058447;28;844;-55
2022/05/14 02:21:48;;;;;;;;;;;;;;;21.99;41.04;100226.22;2058355;28;848;-55
2022/05/14 02:22:48;;;;;;;;;;;;;;;21.99;41.59;100221.69;2058462;28;986;-55
2022/05/14 02:23:49;;;;;;;;;;;;;;;21.98;40.89;100222.63;2058287;28;1069;-57
2022/05/14 02:24:49;;;;;;;;;;;;;;;21.98;41.52;100213.69;2058446;28;958;-55
2022/05/14 02:25:49;;;;;;;;;;;;;;;21.97;40.78;100223.56;2058335;28;1037;-55
2022/05/14 02:26:49;;;;;;;;;;;;;;;21.98;41.21;100225.31;2058302;28;1278;-55
2022/05/14 02:27:50;;;;;;;;;;;;;;;21.98;41.70;100217.22;2058454;28;969;-55
2022/05/14 02:28:51;;;;;;;;;;;;;;;21.98;41.55;100219.94;2058433;28;1152;-55
2022/05/14 02:29:51;;;;;;;;;;;;;;;21.98;41.00;100217.22;2058328;28;1001;-55
2022/05/14 02:30:51;;;;;;;;;;;;;;;21.98;41.22;100222.63;2058495;28;748;-55
2022/05/14 02:31:52;;;;;;;;;;;;;;;21.98;40.78;100213.69;2057658;28;931;-55
2022/05/14 02:32:52;;;;;;;;;;;;;;;21.98;41.36;100222.63;2057843;28;832;-55
2022/05/14 02:33:52;;;;;;;;;;;;;;;21.98;41.07;100221.75;2058155;28;1918;-55
2022/05/14 02:34:53;;;;;;;;;;;;;;;21.99;41.68;100215.44;2058425;28;978;-55
2022/05/14 02:35:53;;;;;;;;;;;;;;;21.98;41.51;100217.22;2058218;28;1010;-55
2022/05/14 02:36:54;;;;;;;;;;;;;;;21.97;40.86;100218.19;2058450;28;911;-55
2022/05/14 02:37:54;;;;;;;;;;;;;;;21.97;41.34;100222.72;2058200;28;1169;-55
2022/05/14 02:38:54;;;;;;;;;;;;;;;21.97;40.84;100215.47;2058358;28;982;-55
2022/05/14 02:39:54;;;;;;;;;;;;;;;21.96;40.99;100216.44;2058272;28;773;-55
2022/05/14 02:40:54;;;;;;;;;;;;;;;21.96;41.26;100221.81;2058401;28;934;-55
2022/05/14 02:41:54;;;;;;;;;;;;;;;21.96;41.23;100216.44;2058283;28;990;-55
2022/05/14 02:42:55;;;;;;;;;;;;;;;21.97;41.18;100212.78;2058439;28;776;-55
2022/05/14 02:43:55;;;;;;;;;;;;;;;21.97;41.41;100214.63;2058245;28;978;-55
2022/05/14 02:44:55;;;;;;;;;;;;;;;21.97;41.41;100211.94;2058386;28;805;-55
2022/05/14 02:45:55;;;;;;;;;;;;;;;21.96;41.00;100216.44;2058236;28;827;-55
2022/05/14 02:46:55;;;;;;;;;;;;;;;21.97;41.93;100215.47;2058438;28;852;-55
2022/05/14 02:47:56;;;;;;;;;;;;;;;21.96;41.88;100215.56;2058236;28;982;-55
2022/05/14 02:48:56;;;;;;;;;;;;;;;21.96;41.79;100216.44;2058399;28;776;-55
2022/05/14 02:49:56;;;;;;;;;;;;;;;21.96;41.29;100216.44;2057540;28;906;-55
2022/05/14 02:50:57;;;;;;;;;;;;;;;21.96;41.93;100212.88;2057726;28;1014;-55
2022/05/14 02:51:57;;;;;;;;;;;;;;;21.95;41.65;100214.69;2058277;28;836;-55
2022/05/14 02:52:57;;;;;;;;;;;;;;;21.96;41.89;100210.19;2058407;28;828;-55
2022/05/14 02:53:57;;;;;;;;;;;;;;;21.97;41.96;100217.31;2058133;28;1899;-55
2022/05/14 02:54:57;;;;;;;;;;;;;;;21.96;41.87;100212.88;2058341;28;863;-55
2022/05/14 02:55:57;;;;;;;;;;;;;;;21.95;41.95;100212.00;2058174;28;982;-55
2022/05/14 02:56:58;;;;;;;;;;;;;;;21.96;41.16;100216.44;2058394;28;776;-55
2022/05/14 02:57:58;;;;;;;;;;;;;;;21.96;41.92;100204.78;2058204;28;974;-55
2022/05/14 02:59:07;;;;;;;;;;;;;;;21.95;41.35;100209.28;2058595;28;879;-55
2022/05/14 03:00:10;;;;;;;;;;;;;;;21.95;42.06;100205.75;2058181;28;804;-55
2022/05/14 03:01:10;;;;;;;;;;;;;;;21.95;41.73;100212.00;2058364;28;792;-55
2022/05/14 03:02:10;;;;;;;;;;;;;;;21.95;42.14;100208.44;2058328;28;1030;-55
2022/05/14 03:03:10;;;;;;;;;;;;;;;21.95;41.57;100203.91;2058441;28;806;-56
2022/05/14 03:04:10;;;;;;;;;;;;;;;21.94;42.03;100207.53;2058172;28;899;-55
2022/05/14 03:05:13;;;;;;;;;;;;;;;21.95;42.00;100203.03;2058356;28;879;-55
2022/05/14 03:06:13;;;;;;;;;;;;;;;21.95;41.59;100209.28;2058190;28;907;-55
2022/05/14 03:07:15;;;;;;;;;;;;;;;21.95;41.46;100211.13;2058423;28;785;-55
2022/05/14 03:08:15;;;;;;;;;;;;;;;21.95;41.86;100208.44;2058145;28;811;-55
2022/05/14 03:09:15;;;;;;;;;;;;;;;21.94;42.22;100207.53;2058317;28;907;-55
2022/05/14 03:10:16;;;;;;;;;;;;;;;21.94;41.82;100210.25;2058075;28;903;-55
2022/05/14 03:11:16;;;;;;;;;;;;;;;21.94;41.58;100210.25;2058307;28;983;-55
2022/05/14 03:12:17;;;;;;;;;;;;;;;21.94;42.09;100210.25;2058134;28;1021;-55
2022/05/14 03:13:17;;;;;;;;;;;;;;;21.92;42.11;100204.94;2058350;28;780;-55
2022/05/14 03:14:17;;;;;;;;;;;;;;;21.93;42.38;100211.19;2059408;28;1948;-55
2022/05/14 03:15:18;;;;;;;;;;;;;;;21.93;41.72;100208.50;2059756;28;836;-55
2022/05/14 03:16:20;;;;;;;;;;;;;;;21.92;41.83;100206.75;2059556;28;990;-55
2022/05/14 03:17:21;;;;;;;;;;;;;;;21.94;41.52;100206.69;2059785;28;796;-55
2022/05/14 03:18:22;;;;;;;;;;;;;;;21.94;41.83;100204.84;2058898;28;1193;-55
2022/05/14 03:19:22;;;;;;;;;;;;;;;21.94;42.36;100202.16;2051050;28;1632;-55
2022/05/14 03:20:22;;;;;;;;;;;;;;;21.92;41.89;100204.94;2058975;28;951;-55
2022/05/14 03:21:22;;;;;;;;;;;;;;;21.94;41.86;100209.38;2066987;28;1009;-55
2022/05/14 03:22:22;;;;;;;;;;;;;;;21.91;42.20;100200.50;2066920;28;895;-55
2022/05/14 03:23:22;;;;;;;;;;;;;;;21.92;41.97;100210.31;2059765;28;982;-55
2022/05/14 03:24:23;;;;;;;;;;;;;;;21.92;42.12;100206.75;2059542;28;971;-55
2022/05/14 03:25:24;;;;;;;;;;;;;;;21.93;42.30;100205.78;2059660;28;820;-55
2022/05/14 03:26:25;;;;;;;;;;;;;;;21.92;41.87;100202.25;2059498;28;812;-55
2022/05/14 03:27:25;;;;;;;;;;;;;;;21.92;41.58;100209.44;2059466;28;1545;-55
2022/05/14 03:28:25;;;;;;;;;;;;;;;21.93;42.20;100208.50;2059548;28;785;-55
2022/05/14 03:29:25;;;;;;;;;;;;;;;21.92;42.15;100210.31;2059634;28;844;-55
2022/05/14 03:30:25;;;;;;;;;;;;;;;21.92;42.46;100209.44;2059498;28;1107;-55
2022/05/14 03:31:26;;;;;;;;;;;;;;;21.92;41.72;100207.63;2058968;28;871;-55
2022/05/14 03:32:26;;;;;;;;;;;;;;;21.92;42.11;100212.13;2058838;28;982;-55
2022/05/14 03:33:26;;;;;;;;;;;;;;;21.93;42.31;100213.88;2059521;28;1918;-55
2022/05/14 03:34:27;;;;;;;;;;;;;;;21.93;41.87;100211.19;2059360;28;667;-55
2022/05/14 03:35:27;;;;;;;;;;;;;;;21.93;42.27;100211.19;2059623;28;982;-55
2022/05/14 03:36:27;;;;;;;;;;;;;;;21.92;41.61;100204.94;2059458;28;883;-55
2022/05/14 03:37:27;;;;;;;;;;;;;;;21.94;41.95;100209.38;2059561;28;781;-55
2022/05/14 03:38:28;;;;;;;;;;;;;;;21.93;41.89;100208.50;2059580;28;800;-55
2022/05/14 03:39:28;;;;;;;;;;;;;;;21.94;42.48;100212.06;2059528;28;900;-55
2022/05/14 03:40:28;;;;;;;;;;;;;;;21.94;42.38;100217.47;2059473;28;931;-55
2022/05/14 03:41:28;;;;;;;;;;;;;;;21.92;42.37;100215.72;2059563;28;915;-55
2022/05/14 03:42:30;;;;;;;;;;;;;;;21.92;41.89;100214.84;2059371;28;977;-55
2022/05/14 03:43:31;;;;;;;;;;;;;;;21.91;41.80;100218.47;2059578;28;903;-55
2022/05/14 03:44:31;;;;;;;;;;;;;;;21.92;41.80;100214.84;2059387;28;800;-55
2022/05/14 03:45:31;;;;;;;;;;;;;;;21.92;41.95;100226.50;2059473;28;994;-55
2022/05/14 03:46:31;;;;;;;;;;;;;;;21.92;41.79;100221.13;2059400;28;827;-55
2022/05/14 03:47:31;;;;;;;;;;;;;;;21.91;42.10;100216.66;2059455;28;860;-55
2022/05/14 03:48:31;;;;;;;;;;;;;;;21.91;42.01;100219.38;2059533;28;974;-55
2022/05/14 03:49:32;;;;;;;;;;;;;;;21.92;42.61;100220.22;2059429;28;796;-56
2022/05/14 03:50:32;;;;;;;;;;;;;;;21.92;42.08;100217.53;2059447;28;1018;-55
2022/05/14 03:51:32;;;;;;;;;;;;;;;21.90;42.12;100216.72;2059397;28;1176;-55
2022/05/14 03:52:32;;;;;;;;;;;;;;;21.90;42.53;100216.72;2059414;28;782;-55
2022/05/14 03:53:33;;;;;;;;;;;;;;;21.89;41.81;100209.59;2059327;28;1963;-55
2022/05/14 03:54:33;;;;;;;;;;;;;;;21.89;42.19;100221.25;2059443;28;915;-55
2022/05/14 03:55:33;;;;;;;;;;;;;;;21.90;42.49;100209.53;2059403;28;915;-55
2022/05/14 03:56:33;;;;;;;;;;;;;;;21.91;42.53;100213.09;2059350;28;982;-55
2022/05/14 03:57:34;;;;;;;;;;;;;;;21.89;42.20;100213.19;2059449;28;827;-55
2022/05/14 03:58:34;;;;;;;;;;;;;;;21.90;41.92;100212.22;2059315;28;849;-55
2022/05/14 03:59:35;;;;;;;;;;;;;;;21.91;42.17;100213.09;2059313;28;938;-55
2022/05/14 04:00:35;;;;;;;;;;;;;;;21.91;42.60;100213.09;2059390;28;1041;-55
2022/05/14 04:01:36;;;;;;;;;;;;;;;22.45;41.65;100213.13;2059334;28;876;-55
2022/05/14 04:02:36;;;;;;;;;;;;;;;23.25;39.83;100204.50;2059406;28;1002;-55
2022/05/14 04:03:36;;;;;;;;;;;;;;;23.80;38.58;100208.63;2059356;28;1030;-56
2022/05/14 04:04:37;;;;;;;;;;;;;;;24.17;37.06;100205.66;2059331;28;765;-54
2022/05/14 04:05:37;;;;;;;;;;;;;;;24.54;36.76;100205.31;2059242;28;1014;-55
2022/05/14 04:06:37;;;;;;;;;;;;;;;24.82;35.77;100206.38;2059375;28;757;-55
2022/05/14 04:07:37;;;;;;;;;;;;;;;25.08;35.83;100202.03;2059265;28;888;-55
2022/05/14 04:08:38;;;;;;;;;;;;;;;25.24;35.08;100212.81;2059449;28;777;-55
2022/05/14 04:09:38;;;;;;;;;;;;;;;25.42;34.93;100205.34;2059194;28;991;-54
2022/05/14 04:10:38;;;;;;;;;;;;;;;25.62;34.25;100208.59;2059328;28;978;-55
2022/05/14 04:11:38;;;;;;;;;;;;;;;25.76;34.07;100213.16;2059144;28;986;-55
2022/05/14 04:12:39;;;;;;;;;;;;;;;25.91;33.58;100213.97;2059346;28;856;-55
2022/05/14 04:13:39;;;;;;;;;;;;;;;26.04;33.57;100211.31;2059049;28;1894;-55
2022/05/14 04:14:40;;;;;;;;;;;;;;;26.10;33.07;100205.47;2059361;28;860;-54
2022/05/14 04:15:40;;;;;;;;;;;;;;;26.24;33.37;100209.16;2059298;28;832;-54
2022/05/14 04:16:40;;;;;;;;;;;;;;;26.29;33.22;100199.72;2059291;28;797;-55
2022/05/14 04:17:41;;;;;;;;;;;;;;;26.54;32.63;100206.19;2059135;28;907;-55
2022/05/14 04:18:41;;;;;;;;;;;;;;;26.61;32.36;100202.09;2059312;28;905;-55
2022/05/14 04:19:41;;;;;;;;;;;;;;;26.63;32.44;100201.97;2059150;28;848;-55
2022/05/14 04:20:41;;;;;;;;;;;;;;;26.79;32.22;100193.59;2059279;28;962;-55
2022/05/14 04:21:42;;;;;;;;;;;;;;;26.98;32.05;100195.06;2059062;28;1017;-55
2022/05/14 04:22:43;;;;;;;;;;;;;;;27.12;31.65;100200.38;2059221;28;863;-55
2022/05/14 04:23:43;;;;;;;;;;;;;;;27.16;31.44;100196.47;2059092;28;804;-55
2022/05/14 04:24:43;;;;;;;;;;;;;;;27.26;31.50;100198.53;2059217;28;826;-55
2022/05/14 04:25:43;;;;;;;;;;;;;;;27.21;31.15;100201.56;2059026;28;840;-55
2022/05/14 04:26:44;;;;;;;;;;;;;;;27.32;31.10;100198.09;2059088;28;1098;-55
2022/05/14 04:27:45;;;;;;;;;;;;;;;27.38;30.87;100195.78;2059102;28;809;-55
2022/05/14 04:28:46;;;;;;;;;;;;;;;27.54;31.21;100197.44;2059370;28;808;-55
2022/05/14 04:29:46;;;;;;;;;;;;;;;27.60;31.24;100202.44;2058366;28;1604;-55
2022/05/14 04:30:46;;;;;;;;;;;;;;;27.59;30.93;100197.09;2058553;28;1029;-55
2022/05/14 04:31:47;;;;;;;;;;;;;;;27.78;30.99;100205.63;2059000;28;808;-55
2022/05/14 04:32:47;;;;;;;;;;;;;;;27.85;30.55;100199.72;2059197;28;807;-55
2022/05/14 04:33:47;;;;;;;;;;;;;;;27.94;30.28;100209.94;2058963;28;1906;-55
2022/05/14 04:34:47;;;;;;;;;;;;;;;27.98;30.56;100200.53;2059125;28;915;-55
2022/05/14 04:35:47;;;;;;;;;;;;;;;28.05;30.43;100209.13;2058967;28;891;-55
2022/05/14 04:36:47;;;;;;;;;;;;;;;28.14;30.72;100205.75;2059186;28;1026;-55
2022/05/14 04:37:48;;;;;;;;;;;;;;;28.22;30.39;100213.31;2058908;28;1259;-55
2022/05/14 04:38:48;;;;;;;;;;;;;;;28.19;30.25;100210.81;2059135;28;792;-55
2022/05/14 04:39:49;;;;;;;;;;;;;;;28.15;30.24;100210.19;2058942;28;982;-55
2022/05/14 04:40:49;;;;;;;;;;;;;;;28.26;30.32;100212.09;2059136;28;806;-55
2022/05/14 04:41:49;;;;;;;;;;;;;;;28.32;30.24;100208.03;2058955;28;907;-55
2022/05/14 04:42:49;;;;;;;;;;;;;;;28.27;30.07;100222.00;2066482;28;893;-55
2022/05/14 04:43:50;;;;;;;;;;;;;;;28.36;29.86;100202.25;2066380;28;1037;-55
2022/05/14 04:44:50;;;;;;;;;;;;;;;28.32;29.61;100214.34;2059158;28;772;-55
2022/05/14 04:45:50;;;;;;;;;;;;;;;28.43;29.44;100213.53;2058926;28;772;-55
2022/05/14 04:46:50;;;;;;;;;;;;;;;28.56;29.68;100208.00;2059025;28;1040;-56
2022/05/14 04:47:50;;;;;;;;;;;;;;;28.60;29.79;100214.94;2058880;28;977;-55
2022/05/14 04:48:50;;;;;;;;;;;;;;;28.62;29.71;100215.69;2059055;28;684;-55
2022/05/14 04:49:51;;;;;;;;;;;;;;;28.61;29.95;100213.94;2058895;28;769;-55
2022/05/14 04:50:51;;;;;;;;;;;;;;;28.68;29.34;100211.63;2059056;28;812;-56
2022/05/14 04:51:51;;;;;;;;;;;;;;;28.61;29.58;100213.94;2058956;28;824;-56
2022/05/14 04:52:51;;;;;;;;;;;;;;;28.54;29.52;100219.00;2059044;28;790;-55
2022/05/14 04:53:51;;;;;;;;;;;;;;;28.54;29.39;100216.28;2058757;28;1953;-55
2022/05/14 04:54:52;;;;;;;;;;;;;;;28.50;29.24;100216.66;2059061;28;776;-55
2022/05/14 04:55:52;;;;;;;;;;;;;;;28.58;29.88;100216.91;2058861;28;823;-55
2022/05/14 04:56:52;;;;;;;;;;;;;;;28.52;29.78;100218.25;2059008;28;1038;-55
2022/05/14 04:57:52;;;;;;;;;;;;;;;28.75;29.32;100225.63;2058805;28;761;-55
2022/05/14 04:58:52;;;;;;;;;;;;;;;28.76;29.75;100219.22;2058906;28;784;-55
2022/05/14 04:59:53;;;;;;;;;;;;;;;28.87;29.04;100219.25;2058808;28;847;-56
2022/05/14 05:00:53;;;;;;;;;;;;;;;28.92;29.32;100222.50;2058963;28;816;-55
2022/05/14 05:03:19;;;;;;;;;;;;;;;28.89;29.77;100216.41;2058982;28;686;-55
2022/05/14 05:04:19;;;;;;;;;;;;;;;28.94;29.51;100212.34;2058928;28;840;-55
2022/05/14 05:05:19;;;;;;;;;;;;;;;28.98;29.00;100219.28;2059057;28;726;-55
2022/05/14 05:06:23;;;;;;;;;;;;;;;28.72;29.53;100224.03;2058773;28;792;-55
2022/05/14 05:07:24;;;;;;;;;;;;;;;28.91;29.32;100219.88;2058892;28;831;-56
2022/05/14 05:08:25;;;;;;;;;;;;;;;29.08;29.40;100219.41;2058749;28;864;-55
2022/05/14 05:09:25;;;;;;;;;;;;;;;29.02;29.44;100214.44;2058883;28;859;-55
2022/05/14 05:10:26;;;;;;;;;;;;;;;29.01;29.10;100215.44;2058627;28;777;-55
2022/05/14 05:11:26;;;;;;;;;;;;;;;28.97;28.74;100217.56;2058903;28;870;-55
2022/05/14 05:12:26;;;;;;;;;;;;;;;29.00;29.11;100216.44;2058683;28;856;-55
2022/05/14 05:13:28;;;;;;;;;;;;;;;28.76;29.54;100222.84;2058880;28;789;-55
2022/05/14 05:14:28;;;;;;;;;;;;;;;28.97;29.33;100214.81;2058841;28;784;-55
2022/05/14 05:15:29;;;;;;;;;;;;;;;29.06;29.21;100212.38;2058806;28;887;-55
2022/05/14 05:16:29;;;;;;;;;;;;;;;29.10;29.08;100214.72;2058107;28;975;-55
2022/05/14 05:17:29;;;;;;;;;;;;;;;29.25;28.58;100215.31;2058337;28;707;-55
2022/05/14 05:18:29;;;;;;;;;;;;;;;29.13;29.06;100217.19;2058707;28;840;-55
2022/05/14 05:19:30;;;;;;;;;;;;;;;28.97;28.98;100212.09;2058793;28;1002;-55
2022/05/14 05:20:31;;;;;;;;;;;;;;;29.06;29.18;100217.81;2058785;28;820;-55
2022/05/14 05:21:31;;;;;;;;;;;;;;;29.21;28.74;100222.00;2058741;28;864;-56
2022/05/14 05:22:31;;;;;;;;;;;;;;;29.14;29.38;100220.81;2058644;28;987;-55
2022/05/14 05:23:31;;;;;;;;;;;;;;;29.13;28.92;100214.47;2058730;28;971;-55
2022/05/14 05:24:32;;;;;;;;;;;;;;;28.92;29.41;100210.72;2058715;28;848;-55
2022/05/14 05:25:32;;;;;;;;;;;;;;;28.90;29.35;100219.03;2058699;28;847;-56
2022/05/14 05:26:33;;;;;;;;;;;;;;;29.00;29.11;100219.16;2058548;28;1068;-55